createdAt,value
2022-08-17T00:02:26.140Z,4.18
2022-08-17T00:04:55.345Z,3.90
2022-08-17T00:07:22.973Z,3.40
2022-08-17T00:09:49.747Z,3.55
2022-08-17T00:12:42.578Z,3.85
2022-08-17T00:15:09.176Z,3.67
2022-08-17T00:17:38.196Z,3.90
2022-08-17T00:20:05.976Z,3.25
2022-08-17T00:22:36.661Z,3.50
2022-08-17T00:25:12.369Z,3.72
2022-08-17T00:27:40.635Z,3.95
2022-08-17T00:30:10.137Z,3.65
2022-08-17T00:33:14.162Z,4.00
2022-08-17T00:35:34.803Z,3.47
2022-08-17T00:38:01.571Z,4.00
2022-08-17T00:40:44.683Z,3.33
2022-08-17T00:43:39.490Z,4.03
2022-08-17T00:46:17.600Z,3.70
2022-08-17T00:48:45.333Z,3.72
2022-08-17T00:51:18.777Z,3.83
2022-08-17T00:53:51.149Z,3.50
2022-08-17T00:56:31.544Z,3.70
2022-08-17T00:58:58.334Z,3.60
2022-08-17T01:01:25.692Z,4.00
2022-08-17T01:03:59.615Z,3.75
2022-08-17T01:06:27.762Z,3.80
2022-08-17T01:08:57.686Z,4.75
2022-08-17T01:11:25.545Z,3.55
2022-08-17T01:13:55.138Z,3.95
2022-08-17T01:16:25.121Z,4.18
2022-08-17T01:18:55.129Z,3.85
2022-08-17T01:21:41.988Z,4.75
2022-08-17T01:24:08.634Z,4.68
2022-08-17T01:26:36.927Z,4.97
2022-08-17T01:29:06.617Z,4.68
2022-08-17T01:31:37.223Z,3.40
2022-08-17T01:34:07.842Z,4.57
2022-08-17T01:36:35.938Z,4.55
2022-08-17T01:39:09.700Z,4.38
2022-08-17T01:41:38.057Z,4.55
2022-08-17T01:44:07.434Z,4.57
2022-08-17T01:46:36.899Z,5.18
2022-08-17T01:49:08.287Z,5.55
2022-08-17T01:51:38.309Z,5.47
2022-08-17T01:54:10.150Z,5.43
2022-08-17T01:56:43.695Z,5.55
2022-08-17T01:59:14.252Z,4.07
2022-08-17T02:01:42.742Z,4.70
2022-08-17T02:04:09.351Z,5.53
2022-08-17T02:06:52.783Z,5.25
2022-08-17T02:09:29.602Z,4.15
2022-08-17T02:11:59.217Z,4.63
2022-08-17T02:14:26.635Z,4.13
2022-08-17T02:16:53.888Z,4.60
2022-08-17T02:19:21.127Z,5.97
2022-08-17T02:21:50.412Z,5.38
2022-08-17T02:25:01.252Z,5.32
2022-08-17T02:27:11.034Z,5.13
2022-08-17T02:29:37.962Z,5.22
2022-08-17T02:32:05.045Z,5.78
2022-08-17T02:34:31.660Z,5.90
2022-08-17T02:36:58.451Z,4.43
2022-08-17T02:39:25.211Z,5.30
2022-08-17T02:42:00.759Z,6.22
2022-08-17T02:44:39.305Z,6.07
2022-08-17T02:47:08.714Z,6.25
2022-08-17T02:49:35.855Z,5.95
2022-08-17T02:52:04.523Z,5.13
2022-08-17T02:54:40.871Z,5.15
2022-08-17T02:57:09.696Z,6.10
2022-08-17T02:59:36.810Z,6.18
2022-08-17T03:02:10.418Z,6.72
2022-08-17T03:04:37.807Z,4.85
2022-08-17T03:07:05.470Z,6.95
2022-08-17T03:09:32.219Z,6.60
2022-08-17T03:12:13.791Z,5.85
2022-08-17T03:14:42.196Z,6.38
2022-08-17T03:17:17.360Z,5.30
2022-08-17T03:19:44.612Z,5.10
2022-08-17T03:22:36.713Z,5.18
2022-08-17T03:24:58.075Z,5.57
2022-08-17T03:27:24.699Z,5.55
2022-08-17T03:29:51.274Z,4.93
2022-08-17T03:32:17.869Z,5.05
2022-08-17T03:34:45.461Z,5.22
2022-08-17T03:37:12.375Z,4.97
2022-08-17T03:39:39.686Z,4.53
2022-08-17T03:42:32.084Z,5.05
2022-08-17T03:45:00.720Z,4.57
2022-08-17T03:47:28.120Z,4.43
2022-08-17T03:49:55.824Z,5.18
2022-08-17T03:52:22.396Z,4.43
2022-08-17T03:54:49.077Z,4.60
2022-08-17T03:57:15.778Z,4.03
2022-08-17T03:59:42.556Z,4.18
2022-08-17T04:02:13.910Z,4.38
2022-08-17T04:04:40.601Z,4.28
2022-08-17T04:07:26.136Z,5.10
2022-08-17T04:09:53.045Z,4.20
2022-08-17T04:12:24.895Z,5.05
2022-08-17T04:14:54.764Z,5.40
2022-08-17T04:17:27.382Z,5.38
2022-08-17T04:19:57.375Z,5.90
2022-08-17T04:22:31.401Z,6.57
2022-08-17T04:25:08.248Z,4.40
2022-08-17T04:27:35.081Z,5.85
2022-08-17T04:30:02.734Z,4.90
2022-08-17T04:32:58.541Z,5.00
2022-08-17T04:35:21.976Z,5.15
2022-08-17T04:37:48.763Z,5.53
2022-08-17T04:40:19.975Z,3.95
2022-08-17T04:43:01.156Z,4.53
2022-08-17T04:45:32.331Z,4.13
2022-08-17T04:48:01.792Z,4.38
2022-08-17T04:50:28.431Z,4.32
2022-08-17T04:52:55.591Z,4.72
2022-08-17T04:55:25.600Z,4.20
2022-08-17T04:57:55.206Z,4.10
2022-08-17T05:00:25.266Z,4.38
2022-08-17T05:02:55.401Z,3.95
2022-08-17T05:05:23.243Z,4.10
2022-08-17T05:07:57.912Z,3.60
2022-08-17T05:10:27.034Z,3.72
2022-08-17T05:13:10.703Z,5.00
2022-08-17T05:15:45.285Z,4.28
2022-08-17T05:18:15.746Z,3.45
2022-08-17T05:20:42.820Z,3.83
2022-08-17T05:23:14.160Z,4.43
2022-08-17T05:25:47.369Z,3.72
2022-08-17T05:28:16.617Z,4.18
2022-08-17T05:30:45.131Z,4.00
2022-08-17T05:33:19.481Z,3.90
2022-08-17T05:35:51.634Z,3.53
2022-08-17T05:38:20.593Z,3.90
2022-08-17T05:40:47.476Z,3.75
2022-08-17T05:43:15.855Z,3.85
2022-08-17T05:45:55.354Z,3.72
2022-08-17T05:48:35.522Z,3.55
2022-08-17T05:51:15.225Z,3.60
2022-08-17T05:53:47.892Z,3.40
2022-08-17T05:56:39.480Z,4.07
2022-08-17T05:59:19.633Z,3.78
2022-08-17T06:02:19.973Z,3.60
2022-08-17T06:04:49.591Z,3.53
2022-08-17T06:07:36.620Z,3.08
2022-08-17T06:10:41.448Z,3.72
2022-08-17T06:13:47.883Z,4.25
2022-08-17T06:16:33.410Z,3.97
2022-08-17T06:19:24.278Z,3.95
2022-08-17T06:21:54.496Z,3.63
2022-08-17T06:24:39.684Z,3.58
2022-08-17T06:27:20.975Z,3.75
2022-08-17T06:30:01.031Z,3.90
2022-08-17T06:32:28.792Z,4.10
2022-08-17T06:34:55.490Z,4.32
2022-08-17T06:37:41.120Z,3.88
2022-08-17T06:40:45.395Z,3.72
2022-08-17T06:43:14.844Z,2.85
2022-08-17T06:45:53.213Z,3.60
2022-08-17T06:48:28.043Z,3.72
2022-08-17T06:51:05.304Z,3.50
2022-08-17T06:54:16.257Z,3.97
2022-08-17T06:56:55.502Z,3.60
2022-08-17T06:59:55.643Z,5.07
2022-08-17T07:02:56.861Z,3.95
2022-08-17T07:05:32.207Z,3.67
2022-08-17T07:08:32.034Z,3.83
2022-08-17T07:11:09.808Z,3.75
2022-08-17T07:13:52.306Z,3.33
2022-08-17T07:16:44.218Z,3.53
2022-08-17T07:19:13.202Z,3.15
2022-08-17T07:21:51.341Z,2.85
2022-08-17T07:24:29.176Z,3.53
2022-08-17T07:27:08.014Z,3.50
2022-08-17T07:30:16.296Z,3.75
2022-08-17T07:33:07.975Z,3.83
2022-08-17T07:35:44.007Z,3.38
2022-08-17T07:38:25.282Z,3.78
2022-08-17T07:40:55.779Z,3.33
2022-08-17T07:43:29.416Z,3.60
2022-08-17T07:46:02.271Z,3.70
2022-08-17T07:48:29.003Z,3.97
2022-08-17T07:50:55.697Z,4.03
2022-08-17T07:53:25.766Z,3.70
2022-08-17T07:55:53.732Z,3.60
2022-08-17T07:58:23.392Z,3.63
2022-08-17T08:01:14.318Z,3.53
2022-08-17T08:03:44.170Z,3.10
2022-08-17T08:06:22.886Z,4.05
2022-08-17T08:08:54.914Z,3.72
2022-08-17T08:11:34.399Z,3.67
2022-08-17T08:14:28.277Z,2.90
2022-08-17T08:16:59.049Z,4.03
2022-08-17T08:19:26.069Z,3.65
2022-08-17T08:22:04.676Z,3.47
2022-08-17T08:24:46.547Z,3.58
2022-08-17T08:27:26.005Z,4.38
2022-08-17T08:30:06.759Z,3.45
2022-08-17T08:32:51.949Z,3.90
2022-08-17T08:35:27.428Z,3.22
2022-08-17T08:37:59.962Z,3.60
2022-08-17T08:40:32.570Z,3.40
2022-08-17T08:43:08.399Z,3.10
2022-08-17T08:45:57.591Z,3.30
2022-08-17T08:48:56.576Z,3.90
2022-08-17T08:51:47.479Z,4.00
2022-08-17T08:54:27.298Z,3.30
2022-08-17T08:57:26.778Z,3.28
2022-08-17T09:00:06.615Z,3.33
2022-08-17T09:02:55.368Z,3.22
2022-08-17T09:05:37.542Z,3.50
2022-08-17T09:08:38.785Z,3.60
2022-08-17T09:11:14.451Z,4.10
2022-08-17T09:14:02.255Z,4.03
2022-08-17T09:16:51.593Z,3.47
2022-08-17T09:19:20.139Z,3.60
2022-08-17T09:21:59.880Z,3.80
2022-08-17T09:24:46.426Z,4.43
2022-08-17T09:27:20.318Z,3.70
2022-08-17T09:29:54.834Z,4.30
2022-08-17T09:32:28.849Z,3.72
2022-08-17T09:35:01.458Z,3.70
2022-08-17T09:37:35.516Z,3.97
2022-08-17T09:40:38.064Z,4.38
2022-08-17T09:43:16.954Z,3.30
2022-08-17T09:45:52.438Z,3.42
2022-08-17T09:48:28.653Z,4.00
2022-08-17T09:51:05.642Z,3.78
2022-08-17T09:53:36.689Z,3.75
2022-08-17T09:56:24.326Z,3.95
2022-08-17T09:59:09.787Z,3.90
2022-08-17T10:01:46.115Z,3.97
2022-08-17T10:04:34.157Z,4.50
2022-08-17T10:07:32.810Z,3.83
2022-08-17T10:10:03.059Z,3.97
2022-08-17T10:13:00.977Z,3.90
2022-08-17T10:16:00.830Z,4.00
2022-08-17T10:18:33.760Z,4.47
2022-08-17T10:21:00.432Z,3.65
2022-08-17T10:23:30.033Z,3.70
2022-08-17T10:26:14.985Z,4.00
2022-08-17T10:28:53.755Z,3.42
2022-08-17T10:31:34.591Z,4.13
2022-08-17T10:34:07.854Z,4.18
2022-08-17T10:36:50.026Z,3.97
2022-08-17T10:39:32.234Z,3.83
2022-08-17T10:42:30.863Z,3.78
2022-08-17T10:45:15.878Z,3.63
2022-08-17T10:48:07.490Z,3.63
2022-08-17T10:50:49.257Z,3.50
2022-08-17T10:53:37.757Z,3.45
2022-08-17T10:56:15.690Z,4.28
2022-08-17T10:58:59.956Z,3.60
2022-08-17T11:01:32.721Z,3.50
2022-08-17T11:04:03.976Z,3.95
2022-08-17T11:06:44.081Z,3.53
2022-08-17T11:09:26.657Z,4.07
2022-08-17T11:12:05.466Z,3.63
2022-08-17T11:14:53.866Z,3.20
2022-08-17T11:17:48.620Z,4.05
2022-08-17T11:20:47.094Z,3.30
2022-08-17T11:23:22.966Z,3.70
2022-08-17T11:25:55.596Z,4.03
2022-08-17T11:28:28.282Z,3.63
2022-08-17T11:33:42.065Z,4.10
2022-08-17T11:36:09.902Z,3.22
2022-08-17T11:38:45.642Z,3.63
2022-08-17T11:41:30.633Z,3.42
2022-08-17T11:44:23.563Z,3.83
2022-08-17T11:47:31.159Z,3.90
2022-08-17T11:50:18.264Z,4.05
2022-08-17T11:52:50.162Z,3.60
2022-08-17T11:55:35.861Z,3.97
2022-08-17T11:58:18.319Z,4.28
2022-08-17T12:00:45.104Z,3.85
2022-08-17T12:03:33.907Z,3.50
2022-08-17T12:06:06.924Z,4.15
2022-08-17T12:08:41.136Z,4.80
2022-08-17T12:11:17.421Z,3.92
2022-08-17T12:14:12.614Z,3.65
2022-08-17T12:16:44.838Z,4.55
2022-08-17T12:19:20.394Z,4.18
2022-08-17T12:22:02.010Z,3.85
2022-08-17T12:24:50.918Z,4.28
2022-08-17T12:28:01.454Z,4.97
2022-08-17T12:30:18.077Z,4.20
2022-08-17T12:32:46.273Z,4.32
2022-08-17T12:35:28.483Z,4.57
2022-08-17T12:37:59.582Z,4.95
2022-08-17T12:40:32.060Z,5.15
2022-08-17T12:43:09.081Z,3.95
2022-08-17T12:45:39.830Z,4.28
2022-08-17T12:48:09.214Z,4.57
2022-08-17T12:50:42.281Z,4.68
2022-08-17T12:58:53.829Z,4.47
2022-08-17T13:01:22.137Z,4.95
2022-08-17T13:03:55.130Z,4.47
2022-08-17T13:06:33.751Z,4.93
2022-08-17T13:09:16.856Z,4.68
2022-08-17T13:12:05.776Z,4.95
2022-08-17T13:14:34.428Z,5.43
2022-08-17T13:17:03.308Z,5.40
2022-08-17T13:19:41.055Z,4.57
2022-08-17T13:22:15.429Z,5.15
2022-08-17T13:24:51.866Z,5.50
2022-08-17T13:27:23.958Z,5.10
2022-08-17T13:30:04.793Z,6.13
2022-08-17T13:35:45.925Z,5.18
2022-08-17T13:38:50.736Z,5.45
2022-08-17T13:41:33.685Z,4.65
2022-08-17T13:44:09.181Z,4.78
2022-08-17T13:46:36.147Z,4.68
2022-08-17T13:49:10.756Z,4.90
2022-08-17T13:51:50.236Z,5.10
2022-08-17T13:54:19.925Z,4.55
2022-08-17T13:56:55.584Z,4.95
2022-08-17T13:59:55.072Z,4.97
2022-08-17T14:02:27.964Z,4.40
2022-08-17T14:04:56.840Z,4.65
2022-08-17T14:07:28.899Z,4.68
2022-08-17T14:09:59.990Z,4.45
2022-08-17T14:12:28.973Z,4.43
2022-08-17T14:15:00.129Z,4.70
2022-08-17T14:17:28.459Z,4.30
2022-08-17T14:19:56.384Z,4.90
2022-08-17T14:25:30.550Z,4.53
2022-08-17T14:27:57.964Z,4.93
2022-08-17T14:30:32.022Z,4.88
2022-08-17T14:33:00.858Z,4.57
2022-08-17T14:35:28.363Z,4.97
2022-08-17T14:37:56.794Z,4.57
2022-08-17T14:40:25.214Z,4.93
2022-08-17T14:42:55.628Z,4.65
2022-08-17T14:50:50.099Z,4.72
2022-08-17T14:53:20.399Z,4.07
2022-08-17T14:55:50.735Z,4.05
2022-08-17T14:58:19.296Z,4.63
2022-08-17T15:00:45.925Z,4.25
2022-08-17T15:03:12.896Z,4.18
2022-08-17T15:05:44.900Z,4.90
2022-08-17T15:08:11.620Z,4.40
2022-08-17T15:10:38.876Z,4.70
2022-08-17T15:13:17.252Z,5.03
2022-08-17T15:15:45.870Z,5.07
2022-08-17T15:18:12.659Z,4.38
2022-08-17T15:20:40.821Z,4.28
2022-08-17T15:23:10.064Z,5.32
2022-08-17T15:25:43.253Z,4.22
2022-08-17T15:30:39.967Z,4.75
2022-08-17T15:33:06.657Z,4.82
2022-08-17T15:35:35.940Z,4.30
2022-08-17T15:38:12.271Z,4.10
2022-08-17T15:40:53.690Z,3.95
2022-08-17T15:43:29.161Z,4.03
2022-08-17T15:46:01.788Z,4.75
2022-08-17T15:48:30.687Z,4.82
2022-08-17T15:51:03.773Z,4.32
2022-08-17T15:53:58.813Z,4.28
2022-08-17T15:56:30.055Z,3.78
2022-08-17T15:58:58.505Z,4.03
2022-08-17T16:01:42.275Z,4.00
2022-08-17T16:06:58.456Z,3.65
2022-08-17T16:09:27.104Z,4.28
2022-08-17T16:11:55.664Z,4.25
2022-08-17T16:14:24.241Z,4.35
2022-08-17T16:16:51.380Z,4.78
2022-08-17T16:19:20.815Z,4.20
2022-08-17T16:21:57.947Z,4.30
2022-08-17T16:27:12.627Z,3.92
2022-08-17T16:32:31.931Z,4.72
2022-08-17T16:35:05.767Z,4.32
2022-08-17T16:37:34.425Z,4.60
2022-08-17T16:40:08.275Z,5.05
2022-08-17T16:42:39.268Z,5.45
2022-08-17T16:45:15.693Z,5.45
2022-08-17T16:47:48.260Z,5.38
2022-08-17T16:50:20.415Z,5.67
2022-08-17T19:45:48.199Z,2.33
2022-08-17T20:09:38.893Z,1.92
2022-08-17T20:33:46.957Z,2.53
2022-08-17T20:45:28.815Z,3.03
2022-08-17T20:54:20.789Z,2.33
2022-08-17T20:59:36.760Z,3.20
2022-08-17T21:07:57.798Z,2.92
2022-08-17T21:10:32.665Z,2.53
2022-08-17T21:13:11.356Z,2.72
2022-08-17T21:16:12.082Z,2.70
2022-08-17T21:22:32.554Z,2.80
2022-08-17T21:31:08.404Z,3.00
2022-08-17T21:33:49.355Z,2.30
2022-08-17T21:36:43.242Z,3.45
2022-08-17T21:39:16.814Z,2.92
2022-08-17T21:44:58.809Z,3.08
2022-08-17T21:53:35.703Z,2.80
2022-08-17T21:58:48.538Z,2.50
2022-08-17T22:01:37.136Z,2.40
2022-08-17T22:04:18.656Z,2.55
2022-08-17T22:06:57.835Z,2.17
2022-08-17T22:12:45.422Z,2.30
2022-08-17T22:18:02.789Z,2.15
2022-08-17T22:20:33.123Z,2.42
2022-08-17T22:23:08.439Z,2.20
2022-08-17T22:29:03.855Z,2.10
2022-08-17T22:32:19.300Z,2.30
2022-08-17T22:34:51.561Z,2.67
2022-08-17T22:40:18.533Z,2.30
2022-08-17T22:45:41.668Z,2.33
2022-08-17T22:48:16.083Z,2.67
2022-08-17T22:50:49.126Z,2.45
2022-08-17T22:53:22.880Z,2.37
2022-08-17T22:56:01.766Z,2.20
2022-08-17T22:58:31.408Z,2.30
2022-08-17T23:04:42.439Z,2.47
2022-08-17T23:07:09.245Z,2.65
2022-08-17T23:09:37.682Z,2.95
2022-08-17T23:17:46.502Z,2.60
2022-08-17T23:20:16.465Z,2.05
2022-08-17T23:22:52.102Z,3.33
2022-08-17T23:30:47.979Z,2.53
2022-08-17T23:33:24.386Z,2.90
2022-08-17T23:35:53.035Z,2.40
2022-08-17T23:41:04.910Z,3.15
2022-08-17T23:43:33.717Z,3.03
2022-08-17T23:46:02.867Z,2.75
2022-08-17T23:48:36.811Z,2.00
2022-08-17T23:56:23.857Z,2.67
2022-08-17T23:58:52.358Z,2.72
